sensor_id;sensor_type;location;lat;lon;timestamp;temperature;humidity
792;DHT22;379;49.022;12.148;2023-07-30T00:01:30;16.50;99.90
792;DHT22;379;49.022;12.148;2023-07-30T00:03:58;16.50;99.90
792;DHT22;379;49.022;12.148;2023-07-30T00:06:25;16.50;99.90
792;DHT22;379;49.022;12.148;2023-07-30T00:08:51;16.50;99.90
792;DHT22;379;49.022;12.148;2023-07-30T00:11:18;16.50;99.90
792;DHT22;379;49.022;12.148;2023-07-30T00:13:46;16.50;99.90
792;DHT22;379;49.022;12.148;2023-07-30T00:16:13;16.50;99.90
792;DHT22;379;49.022;12.148;2023-07-30T00:18:39;16.40;99.90
792;DHT22;379;49.022;12.148;2023-07-30T00:21:06;16.40;99.90
792;DHT22;379;49.022;12.148;2023-07-30T00:23:33;16.40;99.90
792;DHT22;379;49.022;12.148;2023-07-30T00:26:00;16.40;99.90
792;DHT22;379;49.022;12.148;2023-07-30T00:28:26;16.50;99.90
792;DHT22;379;49.022;12.148;2023-07-30T00:30:54;16.50;99.90
792;DHT22;379;49.022;12.148;2023-07-30T00:33:21;16.50;99.90
792;DHT22;379;49.022;12.148;2023-07-30T00:35:50;16.50;99.90
792;DHT22;379;49.022;12.148;2023-07-30T00:38:17;16.50;99.90
792;DHT22;379;49.022;12.148;2023-07-30T00:40:44;16.60;99.90
792;DHT22;379;49.022;12.148;2023-07-30T00:43:11;16.50;99.90
792;DHT22;379;49.022;12.148;2023-07-30T00:45:40;16.50;99.90
792;DHT22;379;49.022;12.148;2023-07-30T00:48:09;16.50;99.90
792;DHT22;379;49.022;12.148;2023-07-30T00:50:37;16.50;99.90
792;DHT22;379;49.022;12.148;2023-07-30T00:53:04;16.50;99.90
792;DHT22;379;49.022;12.148;2023-07-30T00:55:31;16.50;99.90
792;DHT22;379;49.022;12.148;2023-07-30T00:57:58;16.60;99.90
792;DHT22;379;49.022;12.148;2023-07-30T01:00:24;16.60;99.90
792;DHT22;379;49.022;12.148;2023-07-30T01:02:52;16.60;99.90
792;DHT22;379;49.022;12.148;2023-07-30T01:05:20;16.60;99.90
792;DHT22;379;49.022;12.148;2023-07-30T01:07:47;16.70;99.90
792;DHT22;379;49.022;12.148;2023-07-30T01:10:15;16.70;99.90
792;DHT22;379;49.022;12.148;2023-07-30T01:12:42;16.70;99.90
792;DHT22;379;49.022;12.148;2023-07-30T01:15:10;16.80;99.90
792;DHT22;379;49.022;12.148;2023-07-30T01:17:38;16.80;99.90
792;DHT22;379;49.022;12.148;2023-07-30T01:20:06;16.80;99.90
792;DHT22;379;49.022;12.148;2023-07-30T01:22:35;16.80;99.90
792;DHT22;379;49.022;12.148;2023-07-30T01:25:02;16.80;99.90
792;DHT22;379;49.022;12.148;2023-07-30T01:27:31;16.80;99.90
792;DHT22;379;49.022;12.148;2023-07-30T01:30:05;16.90;99.90
792;DHT22;379;49.022;12.148;2023-07-30T01:32:33;16.90;99.90
792;DHT22;379;49.022;12.148;2023-07-30T01:35:01;16.90;99.90
792;DHT22;379;49.022;12.148;2023-07-30T01:37:29;16.90;99.90
792;DHT22;379;49.022;12.148;2023-07-30T01:39:58;16.90;99.90
792;DHT22;379;49.022;12.148;2023-07-30T01:42:28;17.00;99.90
792;DHT22;379;49.022;12.148;2023-07-30T01:44:55;17.00;99.90
792;DHT22;379;49.022;12.148;2023-07-30T01:47:21;17.00;99.90
792;DHT22;379;49.022;12.148;2023-07-30T01:49:48;17.00;99.90
792;DHT22;379;49.022;12.148;2023-07-30T01:52:15;17.00;99.90
792;DHT22;379;49.022;12.148;2023-07-30T01:54:42;17.00;99.90
792;DHT22;379;49.022;12.148;2023-07-30T01:57:10;17.00;99.90
792;DHT22;379;49.022;12.148;2023-07-30T01:59:38;17.00;99.90
792;DHT22;379;49.022;12.148;2023-07-30T02:02:05;17.00;99.90
792;DHT22;379;49.022;12.148;2023-07-30T02:04:32;17.00;99.90
792;DHT22;379;49.022;12.148;2023-07-30T02:06:59;17.00;99.90
792;DHT22;379;49.022;12.148;2023-07-30T02:09:26;17.10;99.90
792;DHT22;379;49.022;12.148;2023-07-30T02:11:52;17.00;99.90
792;DHT22;379;49.022;12.148;2023-07-30T02:14:20;17.00;99.90
792;DHT22;379;49.022;12.148;2023-07-30T02:16:47;17.00;99.90
792;DHT22;379;49.022;12.148;2023-07-30T02:19:14;17.00;99.90
792;DHT22;379;49.022;12.148;2023-07-30T02:21:40;17.00;99.90
792;DHT22;379;49.022;12.148;2023-07-30T02:24:08;17.00;99.90
792;DHT22;379;49.022;12.148;2023-07-30T02:26:36;17.00;99.90
792;DHT22;379;49.022;12.148;2023-07-30T02:29:03;17.00;99.90
792;DHT22;379;49.022;12.148;2023-07-30T02:31:31;17.10;99.90
792;DHT22;379;49.022;12.148;2023-07-30T02:33:58;17.00;99.90
792;DHT22;379;49.022;12.148;2023-07-30T02:36:25;17.10;99.90
792;DHT22;379;49.022;12.148;2023-07-30T02:38:51;17.10;99.90
792;DHT22;379;49.022;12.148;2023-07-30T02:41:18;17.10;99.90
792;DHT22;379;49.022;12.148;2023-07-30T02:43:45;17.10;99.90
792;DHT22;379;49.022;12.148;2023-07-30T02:46:12;17.10;99.90
792;DHT22;379;49.022;12.148;2023-07-30T02:48:40;17.10;99.90
792;DHT22;379;49.022;12.148;2023-07-30T02:51:06;17.20;99.90
792;DHT22;379;49.022;12.148;2023-07-30T02:53:33;17.20;99.90
792;DHT22;379;49.022;12.148;2023-07-30T02:56:00;17.20;99.90
792;DHT22;379;49.022;12.148;2023-07-30T02:58:27;17.20;99.90
792;DHT22;379;49.022;12.148;2023-07-30T03:00:54;17.20;99.90
792;DHT22;379;49.022;12.148;2023-07-30T03:03:20;17.20;99.90
792;DHT22;379;49.022;12.148;2023-07-30T03:05:48;17.20;99.90
792;DHT22;379;49.022;12.148;2023-07-30T03:08:15;17.20;99.90
792;DHT22;379;49.022;12.148;2023-07-30T03:10:42;17.20;99.90
792;DHT22;379;49.022;12.148;2023-07-30T03:13:08;17.10;99.90
792;DHT22;379;49.022;12.148;2023-07-30T03:15:35;17.20;99.90
792;DHT22;379;49.022;12.148;2023-07-30T03:18:02;17.10;99.90
792;DHT22;379;49.022;12.148;2023-07-30T03:20:29;17.10;99.90
792;DHT22;379;49.022;12.148;2023-07-30T03:22:57;17.10;99.90
792;DHT22;379;49.022;12.148;2023-07-30T03:25:23;17.10;99.90
792;DHT22;379;49.022;12.148;2023-07-30T03:27:50;17.10;99.90
792;DHT22;379;49.022;12.148;2023-07-30T03:30:17;17.00;99.90
792;DHT22;379;49.022;12.148;2023-07-30T03:32:43;16.90;99.90
792;DHT22;379;49.022;12.148;2023-07-30T03:35:10;16.90;99.90
792;DHT22;379;49.022;12.148;2023-07-30T03:37:38;16.80;99.90
792;DHT22;379;49.022;12.148;2023-07-30T03:40:07;16.70;99.90
792;DHT22;379;49.022;12.148;2023-07-30T03:42:34;16.60;99.90
792;DHT22;379;49.022;12.148;2023-07-30T03:45:01;16.60;99.90
792;DHT22;379;49.022;12.148;2023-07-30T03:47:28;16.60;99.90
792;DHT22;379;49.022;12.148;2023-07-30T03:49:54;16.60;99.90
792;DHT22;379;49.022;12.148;2023-07-30T03:52:21;16.60;99.90
792;DHT22;379;49.022;12.148;2023-07-30T03:54:48;16.70;99.90
792;DHT22;379;49.022;12.148;2023-07-30T03:57:16;16.70;99.90
792;DHT22;379;49.022;12.148;2023-07-30T03:59:42;16.80;99.90
792;DHT22;379;49.022;12.148;2023-07-30T04:02:09;16.90;99.90
792;DHT22;379;49.022;12.148;2023-07-30T04:04:41;16.90;99.90
792;DHT22;379;49.022;12.148;2023-07-30T04:07:07;16.90;99.90
792;DHT22;379;49.022;12.148;2023-07-30T04:09:34;16.90;99.90
792;DHT22;379;49.022;12.148;2023-07-30T04:12:01;16.90;99.90
792;DHT22;379;49.022;12.148;2023-07-30T04:14:29;16.80;99.90
792;DHT22;379;49.022;12.148;2023-07-30T04:16:55;16.80;99.90
792;DHT22;379;49.022;12.148;2023-07-30T04:19:22;16.90;99.90
792;DHT22;379;49.022;12.148;2023-07-30T04:21:49;16.90;99.90
792;DHT22;379;49.022;12.148;2023-07-30T04:24:16;16.90;99.90
792;DHT22;379;49.022;12.148;2023-07-30T04:26:42;16.80;99.90
792;DHT22;379;49.022;12.148;2023-07-30T04:29:09;16.70;99.90
792;DHT22;379;49.022;12.148;2023-07-30T04:31:37;16.60;99.90
792;DHT22;379;49.022;12.148;2023-07-30T04:34:04;16.60;99.90
792;DHT22;379;49.022;12.148;2023-07-30T04:36:31;16.50;99.90
792;DHT22;379;49.022;12.148;2023-07-30T04:38:57;16.50;99.90
792;DHT22;379;49.022;12.148;2023-07-30T04:41:24;16.50;99.90
792;DHT22;379;49.022;12.148;2023-07-30T04:43:51;16.50;99.90
792;DHT22;379;49.022;12.148;2023-07-30T04:46:17;16.60;99.90
792;DHT22;379;49.022;12.148;2023-07-30T04:48:46;16.60;99.90
792;DHT22;379;49.022;12.148;2023-07-30T04:51:12;16.60;99.90
792;DHT22;379;49.022;12.148;2023-07-30T04:53:39;16.70;99.90
792;DHT22;379;49.022;12.148;2023-07-30T04:56:06;16.70;99.90
792;DHT22;379;49.022;12.148;2023-07-30T04:58:32;16.70;99.90
792;DHT22;379;49.022;12.148;2023-07-30T05:00:59;16.70;99.90
792;DHT22;379;49.022;12.148;2023-07-30T05:03:26;16.70;99.90
792;DHT22;379;49.022;12.148;2023-07-30T05:05:54;16.90;99.90
792;DHT22;379;49.022;12.148;2023-07-30T05:08:21;17.30;99.90
792;DHT22;379;49.022;12.148;2023-07-30T05:10:47;17.70;99.90
792;DHT22;379;49.022;12.148;2023-07-30T05:13:14;17.80;99.90
792;DHT22;379;49.022;12.148;2023-07-30T05:15:41;18.00;99.90
792;DHT22;379;49.022;12.148;2023-07-30T05:18:08;18.20;99.90
792;DHT22;379;49.022;12.148;2023-07-30T05:20:35;18.30;99.90
792;DHT22;379;49.022;12.148;2023-07-30T05:23:03;18.30;99.90
792;DHT22;379;49.022;12.148;2023-07-30T05:25:29;18.40;99.90
792;DHT22;379;49.022;12.148;2023-07-30T05:27:56;18.40;99.90
792;DHT22;379;49.022;12.148;2023-07-30T05:30:23;18.60;99.90
792;DHT22;379;49.022;12.148;2023-07-30T05:32:50;18.80;99.90
792;DHT22;379;49.022;12.148;2023-07-30T05:35:16;19.20;99.90
792;DHT22;379;49.022;12.148;2023-07-30T05:37:44;19.40;99.90
792;DHT22;379;49.022;12.148;2023-07-30T05:40:12;19.70;99.90
792;DHT22;379;49.022;12.148;2023-07-30T05:42:39;20.10;99.90
792;DHT22;379;49.022;12.148;2023-07-30T05:45:07;20.40;99.90
792;DHT22;379;49.022;12.148;2023-07-30T05:47:34;20.70;99.90
792;DHT22;379;49.022;12.148;2023-07-30T05:50:01;21.00;99.90
792;DHT22;379;49.022;12.148;2023-07-30T05:52:28;21.20;99.90
792;DHT22;379;49.022;12.148;2023-07-30T05:54:55;21.20;99.90
792;DHT22;379;49.022;12.148;2023-07-30T05:57:23;21.00;99.90
792;DHT22;379;49.022;12.148;2023-07-30T05:59:50;20.90;99.90
792;DHT22;379;49.022;12.148;2023-07-30T06:02:17;20.80;99.90
792;DHT22;379;49.022;12.148;2023-07-30T06:04:43;20.80;99.90
792;DHT22;379;49.022;12.148;2023-07-30T06:07:10;20.80;99.90
792;DHT22;379;49.022;12.148;2023-07-30T06:09:37;20.80;99.90
792;DHT22;379;49.022;12.148;2023-07-30T06:12:04;20.70;99.90
792;DHT22;379;49.022;12.148;2023-07-30T06:14:32;20.50;99.90
792;DHT22;379;49.022;12.148;2023-07-30T06:16:59;20.40;99.90
792;DHT22;379;49.022;12.148;2023-07-30T06:19:26;20.30;99.90
792;DHT22;379;49.022;12.148;2023-07-30T06:21:52;20.30;99.90
792;DHT22;379;49.022;12.148;2023-07-30T06:24:19;20.30;99.90
792;DHT22;379;49.022;12.148;2023-07-30T06:26:46;20.50;99.90
792;DHT22;379;49.022;12.148;2023-07-30T06:29:13;20.70;99.90
792;DHT22;379;49.022;12.148;2023-07-30T06:31:41;21.00;99.90
792;DHT22;379;49.022;12.148;2023-07-30T06:34:07;21.40;99.90
792;DHT22;379;49.022;12.148;2023-07-30T06:36:34;21.90;99.90
792;DHT22;379;49.022;12.148;2023-07-30T06:39:01;22.10;99.90
792;DHT22;379;49.022;12.148;2023-07-30T06:41:28;22.30;99.90
792;DHT22;379;49.022;12.148;2023-07-30T06:43:54;22.60;99.90
792;DHT22;379;49.022;12.148;2023-07-30T06:46:21;23.40;99.90
792;DHT22;379;49.022;12.148;2023-07-30T06:48:49;24.50;99.90
792;DHT22;379;49.022;12.148;2023-07-30T06:51:19;25.10;99.90
792;DHT22;379;49.022;12.148;2023-07-30T06:53:45;25.00;99.90
792;DHT22;379;49.022;12.148;2023-07-30T06:56:12;24.80;99.90
792;DHT22;379;49.022;12.148;2023-07-30T06:58:39;24.50;99.90
792;DHT22;379;49.022;12.148;2023-07-30T07:01:05;24.20;99.90
792;DHT22;379;49.022;12.148;2023-07-30T07:03:32;23.90;99.90
792;DHT22;379;49.022;12.148;2023-07-30T07:06:00;23.50;99.90
792;DHT22;379;49.022;12.148;2023-07-30T07:08:27;23.20;99.90
792;DHT22;379;49.022;12.148;2023-07-30T07:10:54;22.80;99.90
792;DHT22;379;49.022;12.148;2023-07-30T07:13:20;22.80;99.90
792;DHT22;379;49.022;12.148;2023-07-30T07:15:47;23.10;99.90
792;DHT22;379;49.022;12.148;2023-07-30T07:18:14;23.30;99.90
792;DHT22;379;49.022;12.148;2023-07-30T07:20:41;23.40;99.90
792;DHT22;379;49.022;12.148;2023-07-30T07:23:09;23.40;99.90
792;DHT22;379;49.022;12.148;2023-07-30T07:25:35;23.30;99.90
792;DHT22;379;49.022;12.148;2023-07-30T07:28:03;22.90;99.90
792;DHT22;379;49.022;12.148;2023-07-30T07:30:30;22.90;99.90
792;DHT22;379;49.022;12.148;2023-07-30T07:32:56;22.80;99.90
792;DHT22;379;49.022;12.148;2023-07-30T07:35:23;22.80;99.90
792;DHT22;379;49.022;12.148;2023-07-30T07:37:50;22.90;99.90
792;DHT22;379;49.022;12.148;2023-07-30T07:40:18;23.10;99.90
792;DHT22;379;49.022;12.148;2023-07-30T07:42:45;23.40;99.90
792;DHT22;379;49.022;12.148;2023-07-30T07:45:11;23.70;99.90
792;DHT22;379;49.022;12.148;2023-07-30T07:47:38;24.10;99.90
792;DHT22;379;49.022;12.148;2023-07-30T07:50:06;24.50;99.90
792;DHT22;379;49.022;12.148;2023-07-30T07:52:33;24.80;99.90
792;DHT22;379;49.022;12.148;2023-07-30T07:54:59;24.80;99.90
792;DHT22;379;49.022;12.148;2023-07-30T07:57:27;24.80;99.90
792;DHT22;379;49.022;12.148;2023-07-30T07:59:56;24.80;97.80
792;DHT22;379;49.022;12.148;2023-07-30T08:02:22;24.60;98.30
792;DHT22;379;49.022;12.148;2023-07-30T08:04:49;24.40;97.50
792;DHT22;379;49.022;12.148;2023-07-30T08:07:16;24.20;96.90
792;DHT22;379;49.022;12.148;2023-07-30T08:09:43;24.10;95.30
792;DHT22;379;49.022;12.148;2023-07-30T08:12:09;23.90;94.80
792;DHT22;379;49.022;12.148;2023-07-30T08:14:39;24.10;95.70
792;DHT22;379;49.022;12.148;2023-07-30T08:17:06;24.40;95.70
792;DHT22;379;49.022;12.148;2023-07-30T08:19:33;24.60;94.80
792;DHT22;379;49.022;12.148;2023-07-30T08:22:00;24.60;93.40
792;DHT22;379;49.022;12.148;2023-07-30T08:24:26;24.30;92.30
792;DHT22;379;49.022;12.148;2023-07-30T08:26:53;24.10;93.30
792;DHT22;379;49.022;12.148;2023-07-30T08:29:20;24.10;93.60
792;DHT22;379;49.022;12.148;2023-07-30T08:31:48;24.00;93.30
792;DHT22;379;49.022;12.148;2023-07-30T08:34:15;23.90;93.40
792;DHT22;379;49.022;12.148;2023-07-30T08:36:41;23.80;94.20
792;DHT22;379;49.022;12.148;2023-07-30T08:39:08;23.90;94.20
792;DHT22;379;49.022;12.148;2023-07-30T08:41:35;23.90;94.00
792;DHT22;379;49.022;12.148;2023-07-30T08:44:02;24.00;94.50
792;DHT22;379;49.022;12.148;2023-07-30T08:46:28;24.30;94.60
792;DHT22;379;49.022;12.148;2023-07-30T08:48:57;24.40;94.10
792;DHT22;379;49.022;12.148;2023-07-30T08:51:26;24.60;94.70
792;DHT22;379;49.022;12.148;2023-07-30T08:53:52;24.90;94.70
792;DHT22;379;49.022;12.148;2023-07-30T08:56:20;25.00;91.60
792;DHT22;379;49.022;12.148;2023-07-30T08:58:48;24.60;88.90
792;DHT22;379;49.022;12.148;2023-07-30T09:01:17;24.20;89.10
792;DHT22;379;49.022;12.148;2023-07-30T09:03:45;23.90;90.10
792;DHT22;379;49.022;12.148;2023-07-30T09:06:13;24.20;91.80
792;DHT22;379;49.022;12.148;2023-07-30T09:08:39;25.00;92.60
792;DHT22;379;49.022;12.148;2023-07-30T09:11:07;25.70;91.80
792;DHT22;379;49.022;12.148;2023-07-30T09:13:37;26.40;90.20
792;DHT22;379;49.022;12.148;2023-07-30T09:16:08;27.00;89.10
792;DHT22;379;49.022;12.148;2023-07-30T09:18:39;27.40;86.50
792;DHT22;379;49.022;12.148;2023-07-30T09:21:06;27.80;84.90
792;DHT22;379;49.022;12.148;2023-07-30T09:23:39;28.10;80.00
792;DHT22;379;49.022;12.148;2023-07-30T09:26:06;28.20;78.00
792;DHT22;379;49.022;12.148;2023-07-30T09:28:33;28.20;77.20
792;DHT22;379;49.022;12.148;2023-07-30T09:31:01;28.20;76.80
792;DHT22;379;49.022;12.148;2023-07-30T09:33:27;27.90;74.60
792;DHT22;379;49.022;12.148;2023-07-30T09:35:54;27.40;73.80
792;DHT22;379;49.022;12.148;2023-07-30T09:38:21;26.90;77.20
792;DHT22;379;49.022;12.148;2023-07-30T09:40:49;26.50;77.20
792;DHT22;379;49.022;12.148;2023-07-30T09:43:16;25.90;78.50
792;DHT22;379;49.022;12.148;2023-07-30T09:45:45;25.40;80.80
792;DHT22;379;49.022;12.148;2023-07-30T09:48:13;24.80;82.50
792;DHT22;379;49.022;12.148;2023-07-30T09:50:40;24.50;86.00
792;DHT22;379;49.022;12.148;2023-07-30T09:53:09;24.10;88.50
792;DHT22;379;49.022;12.148;2023-07-30T09:55:36;23.70;89.80
792;DHT22;379;49.022;12.148;2023-07-30T09:58:04;23.10;90.50
792;DHT22;379;49.022;12.148;2023-07-30T10:00:33;22.00;91.90
792;DHT22;379;49.022;12.148;2023-07-30T10:03:01;20.90;96.10
792;DHT22;379;49.022;12.148;2023-07-30T10:05:32;20.10;99.90
792;DHT22;379;49.022;12.148;2023-07-30T10:08:02;19.70;99.90
792;DHT22;379;49.022;12.148;2023-07-30T10:10:31;19.40;99.90
792;DHT22;379;49.022;12.148;2023-07-30T10:13:00;19.30;99.90
792;DHT22;379;49.022;12.148;2023-07-30T10:15:33;19.20;99.90
792;DHT22;379;49.022;12.148;2023-07-30T10:17:59;19.10;99.90
792;DHT22;379;49.022;12.148;2023-07-30T10:20:28;18.90;99.90
792;DHT22;379;49.022;12.148;2023-07-30T10:22:56;18.70;99.90
792;DHT22;379;49.022;12.148;2023-07-30T10:25:29;18.50;99.90
792;DHT22;379;49.022;12.148;2023-07-30T10:27:56;18.40;99.90
792;DHT22;379;49.022;12.148;2023-07-30T10:30:31;18.20;99.90
792;DHT22;379;49.022;12.148;2023-07-30T10:33:00;18.20;99.90
792;DHT22;379;49.022;12.148;2023-07-30T10:35:43;18.30;99.90
792;DHT22;379;49.022;12.148;2023-07-30T10:38:18;18.60;99.90
792;DHT22;379;49.022;12.148;2023-07-30T10:41:03;18.90;99.90
792;DHT22;379;49.022;12.148;2023-07-30T10:43:31;19.50;99.90
792;DHT22;379;49.022;12.148;2023-07-30T10:45:59;19.90;99.90
792;DHT22;379;49.022;12.148;2023-07-30T10:48:33;20.40;99.90
792;DHT22;379;49.022;12.148;2023-07-30T10:51:01;20.70;99.90
792;DHT22;379;49.022;12.148;2023-07-30T10:53:28;21.00;99.90
792;DHT22;379;49.022;12.148;2023-07-30T10:55:57;21.10;99.90
792;DHT22;379;49.022;12.148;2023-07-30T10:58:26;21.20;99.90
792;DHT22;379;49.022;12.148;2023-07-30T11:00:53;21.70;99.90
792;DHT22;379;49.022;12.148;2023-07-30T11:03:24;22.10;99.90
792;DHT22;379;49.022;12.148;2023-07-30T11:05:51;22.50;99.90
792;DHT22;379;49.022;12.148;2023-07-30T11:08:18;22.90;99.90
792;DHT22;379;49.022;12.148;2023-07-30T11:10:45;23.30;99.90
792;DHT22;379;49.022;12.148;2023-07-30T11:13:13;23.80;99.90
792;DHT22;379;49.022;12.148;2023-07-30T11:15:42;24.20;99.90
792;DHT22;379;49.022;12.148;2023-07-30T11:18:10;24.50;99.90
792;DHT22;379;49.022;12.148;2023-07-30T11:20:39;24.50;99.90
792;DHT22;379;49.022;12.148;2023-07-30T11:23:19;24.40;99.90
792;DHT22;379;49.022;12.148;2023-07-30T11:25:47;24.20;99.90
792;DHT22;379;49.022;12.148;2023-07-30T11:28:26;24.30;99.90
792;DHT22;379;49.022;12.148;2023-07-30T11:30:53;24.40;99.90
792;DHT22;379;49.022;12.148;2023-07-30T11:33:20;24.80;99.90
792;DHT22;379;49.022;12.148;2023-07-30T11:35:48;25.50;99.90
792;DHT22;379;49.022;12.148;2023-07-30T11:38:15;25.90;99.90
792;DHT22;379;49.022;12.148;2023-07-30T11:40:43;26.50;99.90
792;DHT22;379;49.022;12.148;2023-07-30T11:43:10;26.80;99.90
792;DHT22;379;49.022;12.148;2023-07-30T11:45:36;27.00;99.10
792;DHT22;379;49.022;12.148;2023-07-30T11:48:07;27.10;93.50
792;DHT22;379;49.022;12.148;2023-07-30T11:50:50;26.90;93.70
792;DHT22;379;49.022;12.148;2023-07-30T11:53:18;27.00;94.30
792;DHT22;379;49.022;12.148;2023-07-30T11:55:45;27.20;93.70
792;DHT22;379;49.022;12.148;2023-07-30T11:58:13;27.60;92.80
792;DHT22;379;49.022;12.148;2023-07-30T12:00:40;27.70;91.40
792;DHT22;379;49.022;12.148;2023-07-30T12:03:10;27.30;82.50
792;DHT22;379;49.022;12.148;2023-07-30T12:05:38;26.50;84.10
792;DHT22;379;49.022;12.148;2023-07-30T12:08:13;24.70;85.40
792;DHT22;379;49.022;12.148;2023-07-30T12:10:44;21.70;90.50
792;DHT22;379;49.022;12.148;2023-07-30T12:13:12;20.00;96.40
792;DHT22;379;49.022;12.148;2023-07-30T12:15:38;19.00;99.90
792;DHT22;379;49.022;12.148;2023-07-30T12:18:05;18.40;99.90
792;DHT22;379;49.022;12.148;2023-07-30T12:20:32;18.30;99.90
792;DHT22;379;49.022;12.148;2023-07-30T12:22:59;18.30;99.90
792;DHT22;379;49.022;12.148;2023-07-30T12:25:27;18.70;99.90
792;DHT22;379;49.022;12.148;2023-07-30T12:27:54;19.30;99.90
792;DHT22;379;49.022;12.148;2023-07-30T12:30:21;19.80;99.90
792;DHT22;379;49.022;12.148;2023-07-30T12:32:47;20.30;99.90
792;DHT22;379;49.022;12.148;2023-07-30T12:35:14;20.50;99.90
792;DHT22;379;49.022;12.148;2023-07-30T12:37:41;20.70;99.90
792;DHT22;379;49.022;12.148;2023-07-30T12:40:08;20.80;99.90
792;DHT22;379;49.022;12.148;2023-07-30T12:42:37;21.10;99.90
792;DHT22;379;49.022;12.148;2023-07-30T12:45:04;21.30;99.90
792;DHT22;379;49.022;12.148;2023-07-30T12:47:30;21.50;99.90
792;DHT22;379;49.022;12.148;2023-07-30T12:49:57;21.50;99.90
792;DHT22;379;49.022;12.148;2023-07-30T12:52:24;21.50;99.90
792;DHT22;379;49.022;12.148;2023-07-30T12:54:51;21.70;99.90
792;DHT22;379;49.022;12.148;2023-07-30T12:57:18;21.70;99.90
792;DHT22;379;49.022;12.148;2023-07-30T12:59:46;21.90;99.90
792;DHT22;379;49.022;12.148;2023-07-30T13:02:12;22.20;99.90
792;DHT22;379;49.022;12.148;2023-07-30T13:04:39;22.50;99.90
792;DHT22;379;49.022;12.148;2023-07-30T13:07:06;22.70;99.90
792;DHT22;379;49.022;12.148;2023-07-30T13:09:33;22.90;99.90
792;DHT22;379;49.022;12.148;2023-07-30T13:11:59;23.30;99.90
792;DHT22;379;49.022;12.148;2023-07-30T13:14:26;23.80;99.90
792;DHT22;379;49.022;12.148;2023-07-30T13:16:54;24.10;99.90
792;DHT22;379;49.022;12.148;2023-07-30T13:19:21;24.10;99.90
792;DHT22;379;49.022;12.148;2023-07-30T13:21:47;23.90;99.90
792;DHT22;379;49.022;12.148;2023-07-30T13:24:14;23.30;99.90
792;DHT22;379;49.022;12.148;2023-07-30T13:26:41;22.90;99.90
792;DHT22;379;49.022;12.148;2023-07-30T13:29:07;22.60;99.90
792;DHT22;379;49.022;12.148;2023-07-30T13:31:34;22.40;99.90
792;DHT22;379;49.022;12.148;2023-07-30T13:34:02;22.10;99.90
792;DHT22;379;49.022;12.148;2023-07-30T13:36:29;22.00;99.90
792;DHT22;379;49.022;12.148;2023-07-30T13:38:56;22.10;99.90
792;DHT22;379;49.022;12.148;2023-07-30T13:41:22;22.40;99.90
792;DHT22;379;49.022;12.148;2023-07-30T13:43:49;22.50;99.90
792;DHT22;379;49.022;12.148;2023-07-30T13:46:16;22.60;96.40
792;DHT22;379;49.022;12.148;2023-07-30T13:48:42;22.50;94.10
792;DHT22;379;49.022;12.148;2023-07-30T13:51:10;22.50;95.00
792;DHT22;379;49.022;12.148;2023-07-30T13:53:37;22.50;93.70
792;DHT22;379;49.022;12.148;2023-07-30T13:56:06;22.50;93.10
792;DHT22;379;49.022;12.148;2023-07-30T13:58:33;22.70;95.90
792;DHT22;379;49.022;12.148;2023-07-30T14:01:00;22.80;93.90
792;DHT22;379;49.022;12.148;2023-07-30T14:03:27;23.10;95.40
792;DHT22;379;49.022;12.148;2023-07-30T14:05:53;23.40;96.10
792;DHT22;379;49.022;12.148;2023-07-30T14:08:21;23.80;95.60
792;DHT22;379;49.022;12.148;2023-07-30T14:10:48;24.00;94.90
792;DHT22;379;49.022;12.148;2023-07-30T14:13:15;24.20;94.70
792;DHT22;379;49.022;12.148;2023-07-30T14:15:41;24.10;91.70
792;DHT22;379;49.022;12.148;2023-07-30T14:18:09;23.80;87.80
792;DHT22;379;49.022;12.148;2023-07-30T14:20:36;23.50;85.90
792;DHT22;379;49.022;12.148;2023-07-30T14:23:03;23.20;84.30
792;DHT22;379;49.022;12.148;2023-07-30T14:25:32;23.00;82.20
792;DHT22;379;49.022;12.148;2023-07-30T14:27:59;22.70;82.50
792;DHT22;379;49.022;12.148;2023-07-30T14:30:25;22.60;85.70
792;DHT22;379;49.022;12.148;2023-07-30T14:32:52;22.40;82.70
792;DHT22;379;49.022;12.148;2023-07-30T14:35:20;22.40;80.40
792;DHT22;379;49.022;12.148;2023-07-30T14:37:46;22.30;81.00
792;DHT22;379;49.022;12.148;2023-07-30T14:40:14;22.40;81.30
792;DHT22;379;49.022;12.148;2023-07-30T14:42:42;22.40;81.10
792;DHT22;379;49.022;12.148;2023-07-30T14:45:09;22.50;84.80
792;DHT22;379;49.022;12.148;2023-07-30T14:47:36;22.60;79.10
792;DHT22;379;49.022;12.148;2023-07-30T14:50:04;22.80;80.50
792;DHT22;379;49.022;12.148;2023-07-30T14:52:31;22.90;78.60
792;DHT22;379;49.022;12.148;2023-07-30T14:54:58;22.90;76.30
792;DHT22;379;49.022;12.148;2023-07-30T14:57:24;23.00;75.80
792;DHT22;379;49.022;12.148;2023-07-30T14:59:53;23.10;77.00
792;DHT22;379;49.022;12.148;2023-07-30T15:02:20;23.10;71.80
792;DHT22;379;49.022;12.148;2023-07-30T15:04:46;23.20;72.50
792;DHT22;379;49.022;12.148;2023-07-30T15:07:13;23.30;74.60
792;DHT22;379;49.022;12.148;2023-07-30T15:09:40;23.50;72.40
792;DHT22;379;49.022;12.148;2023-07-30T15:12:09;23.60;72.40
792;DHT22;379;49.022;12.148;2023-07-30T15:14:36;23.60;74.50
792;DHT22;379;49.022;12.148;2023-07-30T15:17:04;23.60;75.20
792;DHT22;379;49.022;12.148;2023-07-30T15:19:31;23.50;75.00
792;DHT22;379;49.022;12.148;2023-07-30T15:21:59;23.40;75.40
792;DHT22;379;49.022;12.148;2023-07-30T15:24:26;23.40;74.20
792;DHT22;379;49.022;12.148;2023-07-30T15:26:53;23.30;73.20
792;DHT22;379;49.022;12.148;2023-07-30T15:29:21;23.30;69.10
792;DHT22;379;49.022;12.148;2023-07-30T15:31:48;23.30;71.00
792;DHT22;379;49.022;12.148;2023-07-30T15:34:17;23.30;69.00
792;DHT22;379;49.022;12.148;2023-07-30T15:36:44;23.40;70.10
792;DHT22;379;49.022;12.148;2023-07-30T15:39:10;23.40;71.80
792;DHT22;379;49.022;12.148;2023-07-30T15:41:38;23.40;71.00
792;DHT22;379;49.022;12.148;2023-07-30T15:44:04;23.40;66.20
792;DHT22;379;49.022;12.148;2023-07-30T15:46:31;23.50;69.70
792;DHT22;379;49.022;12.148;2023-07-30T15:48:58;23.60;67.70
792;DHT22;379;49.022;12.148;2023-07-30T15:51:26;23.70;66.30
792;DHT22;379;49.022;12.148;2023-07-30T15:53:54;23.70;66.50
792;DHT22;379;49.022;12.148;2023-07-30T15:56:20;23.70;66.50
792;DHT22;379;49.022;12.148;2023-07-30T15:58:47;23.70;66.40
792;DHT22;379;49.022;12.148;2023-07-30T16:01:14;23.70;62.60
792;DHT22;379;49.022;12.148;2023-07-30T16:03:41;23.60;62.10
792;DHT22;379;49.022;12.148;2023-07-30T16:06:07;23.60;61.10
792;DHT22;379;49.022;12.148;2023-07-30T16:08:36;23.60;59.60
792;DHT22;379;49.022;12.148;2023-07-30T16:11:04;23.60;62.10
792;DHT22;379;49.022;12.148;2023-07-30T16:13:31;23.60;60.50
792;DHT22;379;49.022;12.148;2023-07-30T16:16:07;23.50;60.20
792;DHT22;379;49.022;12.148;2023-07-30T16:18:33;23.30;62.80